Time;durP1;ratioP1;P1;durP2;ratioP2;P2;SDS_P1;SDS_P2;PMS_P1;PMS_P2;Temp;Humidity;BMP_temperature;BMP_pressure;BME280_temperature;BME280_humidity;BME280_pressure;Samples;Min_cycle;Max_cycle;Signal;HPM_P1;HPM_P2
2022/08/17 00:00:55;;;;;;;2.78;2.42;;;;;;;18.64;76.24;99681.22;5022477;28;20038;-71
2022/08/17 00:03:26;;;;;;;3.05;2.05;;;;;;;18.62;76.68;99682.78;5022345;28;20112;-70
2022/08/17 00:05:52;;;;;;;5.35;2.40;;;;;;;18.61;76.84;99681.13;5002996;28;20494;-71
2022/08/17 00:08:22;;;;;;;4.65;2.10;;;;;;;18.57;76.66;99680.25;5040847;28;20060;-70
2022/08/17 00:10:47;;;;;;;7.55;2.50;;;;;;;18.57;76.27;99681.06;5009965;28;20032;-70
2022/08/17 00:13:34;;;;;;;6.22;2.33;;;;;;;18.52;76.36;99682.16;5022335;28;20032;-70
2022/08/17 00:16:04;;;;;;;3.00;2.35;;;;;;;18.45;76.32;99670.78;5021651;28;20017;-70
2022/08/17 00:18:30;;;;;;;2.45;2.22;;;;;;;18.42;76.81;99657.47;5003310;28;20029;-70
2022/08/17 00:20:55;;;;;;;2.70;2.05;;;;;;;18.42;76.41;99667.88;5054163;28;20135;-70
2022/08/17 00:23:21;;;;;;;3.13;2.30;;;;;;;18.38;76.12;99672.59;5026371;28;20032;-70
2022/08/17 00:25:47;;;;;;;3.03;1.70;;;;;;;18.34;76.54;99677.34;5022255;28;20048;-70
2022/08/17 00:28:15;;;;;;;4.63;2.13;;;;;;;18.31;76.71;99676.88;5006055;28;20036;-70
2022/08/17 00:30:46;;;;;;;2.38;2.13;;;;;;;18.26;76.61;99676.34;5017741;28;20068;-70
2022/08/17 00:33:22;;;;;;;3.10;2.03;;;;;;;18.23;76.68;99674.28;5015547;28;20123;-70
2022/08/17 00:35:48;;;;;;;3.22;2.03;;;;;;;18.20;76.62;99661.78;5006518;28;20108;-70
2022/08/17 00:38:13;;;;;;;7.53;2.53;;;;;;;18.14;76.72;99671.66;5038347;28;20120;-70
2022/08/17 00:40:47;;;;;;;5.47;2.20;;;;;;;18.11;76.80;99668.75;5021546;28;20032;-70
2022/08/17 00:43:19;;;;;;;3.88;2.30;;;;;;;18.05;76.82;99666.25;5056093;28;20036;-70
2022/08/17 00:45:44;;;;;;;4.63;2.03;;;;;;;18.05;76.41;99666.25;5038371;28;20117;-70
2022/08/17 00:48:10;;;;;;;3.47;2.28;;;;;;;17.98;76.76;99659.66;5057655;28;20025;-70
2022/08/17 00:50:35;;;;;;;3.65;2.33;;;;;;;17.96;77.08;99662.00;5017689;28;20555;-70
2022/08/17 00:53:01;;;;;;;4.03;2.30;;;;;;;17.91;77.09;99660.28;5013748;28;20041;-70
2022/08/17 00:55:27;;;;;;;2.67;1.95;;;;;;;17.91;77.16;99665.06;5002158;28;20117;-70
2022/08/17 00:57:57;;;;;;;4.35;2.28;;;;;;;17.85;77.28;99659.72;4989091;28;20051;-71
2022/08/17 01:00:28;;;;;;;4.15;2.10;;;;;;;17.82;76.82;99662.47;4989463;28;20035;-71
2022/08/17 01:02:58;;;;;;;2.45;2.20;;;;;;;17.78;77.09;99662.38;5005220;28;20413;-70
2022/08/17 01:05:24;;;;;;;7.18;2.58;;;;;;;17.81;77.01;99660.84;5001767;28;20121;-70
2022/08/17 01:07:50;;;;;;;3.53;2.30;;;;;;;17.76;77.86;99666.69;5024199;28;20174;-70
2022/08/17 01:10:15;;;;;;;4.32;2.30;;;;;;;17.73;77.86;99673.84;5009199;28;20040;-70
2022/08/17 01:12:41;;;;;;;2.83;2.33;;;;;;;17.69;77.82;99677.72;5009522;28;20031;-70
2022/08/17 01:15:07;;;;;;;3.17;2.08;;;;;;;17.68;77.42;99674.13;5009573;28;20461;-70
2022/08/17 01:17:32;;;;;;;4.60;2.70;;;;;;;17.65;78.36;99689.69;5009145;28;20477;-70
2022/08/17 01:19:58;;;;;;;3.75;2.17;;;;;;;17.66;77.92;99687.69;4989071;28;20064;-70
2022/08/17 01:22:23;;;;;;;5.00;2.40;;;;;;;17.66;77.62;99682.06;5006226;28;20041;-70
2022/08/17 01:24:52;;;;;;;2.85;2.30;;;;;;;17.59;77.54;99687.53;5005625;28;20033;-70
2022/08/17 01:27:18;;;;;;;5.35;2.55;;;;;;;17.55;77.87;99687.44;5006390;28;20108;-70
2022/08/17 01:29:45;;;;;;;3.47;2.50;;;;;;;17.53;78.36;99698.22;5031447;28;20033;-70
2022/08/17 01:32:11;;;;;;;2.80;2.28;;;;;;;17.49;78.49;99683.25;5020448;28;20144;-70
2022/08/17 01:34:37;;;;;;;4.00;2.42;;;;;;;17.47;78.49;99679.16;4983809;28;20030;-70
2022/08/17 01:37:02;;;;;;;2.70;2.50;;;;;;;17.47;78.91;99681.97;5019334;28;20117;-70
2022/08/17 01:39:33;;;;;;;3.65;2.75;;;;;;;17.44;78.93;99683.53;5038593;28;20029;-70
2022/08/17 01:42:05;;;;;;;2.78;2.38;;;;;;;17.41;78.85;99673.00;5031323;28;20025;-70
2022/08/17 01:44:30;;;;;;;2.60;2.33;;;;;;;17.38;78.50;99684.97;5036423;28;20030;-70
2022/08/17 01:46:56;;;;;;;3.05;2.40;;;;;;;17.35;78.75;99686.50;5038136;28;20045;-70
2022/08/17 01:49:21;;;;;;;2.80;2.60;;;;;;;17.32;78.72;99687.22;5039314;28;20087;-70
2022/08/17 01:51:47;;;;;;;4.38;2.17;;;;;;;17.30;78.76;99688.75;5032384;28;20156;-70
2022/08/17 01:54:14;;;;;;;2.97;2.45;;;;;;;17.29;78.62;99687.94;5017920;28;20044;-70
2022/08/17 01:56:42;;;;;;;3.28;2.60;;;;;;;17.22;78.94;99690.56;5038013;28;20057;-70
2022/08/17 01:59:08;;;;;;;2.78;2.30;;;;;;;17.23;79.13;99692.19;5038180;28;20025;-70
2022/08/17 02:01:33;;;;;;;2.55;2.35;;;;;;;17.25;78.96;99692.66;5021550;28;20033;-70
2022/08/17 02:03:59;;;;;;;3.17;2.38;;;;;;;17.23;79.11;99694.19;5021541;28;20033;-70
2022/08/17 02:06:25;;;;;;;2.65;2.45;;;;;;;17.22;79.31;99675.69;5037440;28;20660;-70
2022/08/17 02:08:51;;;;;;;5.15;2.58;;;;;;;17.17;79.06;99665.56;5001883;28;20513;-70
2022/08/17 02:11:17;;;;;;;3.35;2.55;;;;;;;17.14;79.46;99661.47;5018050;28;20032;-70
2022/08/17 02:13:43;;;;;;;4.22;2.42;;;;;;;17.12;79.16;99657.41;5037822;28;20034;-70
2022/08/17 02:16:09;;;;;;;2.53;2.30;;;;;;;17.11;79.03;99670.63;5004955;28;20055;-70
2022/08/17 02:18:34;;;;;;;4.50;2.53;;;;;;;17.09;79.41;99670.16;5004020;28;20462;-70
2022/08/17 02:21:00;;;;;;;7.40;2.35;;;;;;;17.08;78.92;99662.13;5037326;28;20068;-70
2022/08/17 02:23:26;;;;;;;4.20;2.42;;;;;;;17.08;79.31;99667.72;5037701;28;20473;-70
2022/08/17 02:25:52;;;;;;;2.58;2.22;;;;;;;17.03;79.05;99680.00;5005001;28;20033;-70
2022/08/17 02:28:17;;;;;;;2.80;2.28;;;;;;;17.01;79.12;99687.97;5020761;28;20036;-70
2022/08/17 02:30:43;;;;;;;3.30;2.28;;;;;;;16.96;78.92;99693.81;5020955;28;20080;-70
2022/08/17 02:33:09;;;;;;;3.00;2.33;;;;;;;16.93;78.97;99700.94;5018574;28;20033;-71
2022/08/17 02:35:36;;;;;;;3.25;2.60;;;;;;;16.92;79.61;99693.72;5037363;28;20029;-70
2022/08/17 02:38:03;;;;;;;3.90;2.72;;;;;;;16.90;79.57;99696.06;4988498;28;20033;-70
2022/08/17 02:40:28;;;;;;;2.67;2.47;;;;;;;16.86;79.63;99688.75;5004922;28;20118;-70
2022/08/17 02:42:54;;;;;;;2.75;2.53;;;;;;;16.82;79.29;99690.59;5006265;28;20033;-70
2022/08/17 02:45:22;;;;;;;5.78;2.60;;;;;;;16.80;79.63;99693.78;4996501;28;20413;-70
2022/08/17 02:47:47;;;;;;;4.55;2.50;;;;;;;16.78;79.43;99698.91;5003178;28;20065;-70
2022/08/17 02:50:14;;;;;;;5.60;2.42;;;;;;;16.79;79.56;99699.72;5036356;28;20113;-70
2022/08/17 02:52:40;;;;;;;3.17;2.58;;;;;;;16.78;79.09;99698.13;5016220;28;20076;-70
2022/08/17 02:55:08;;;;;;;3.10;2.53;;;;;;;16.77;79.69;99696.47;5006832;28;20029;-70
2022/08/17 02:57:34;;;;;;;3.22;2.38;;;;;;;16.78;79.91;99704.53;4981677;28;20100;-70
2022/08/17 02:59:59;;;;;;;4.63;2.63;;;;;;;16.73;80.14;99701.94;5035404;28;20108;-71
2022/08/17 03:02:25;;;;;;;3.20;2.55;;;;;;;16.69;80.27;99704.66;5018268;28;20026;-70
2022/08/17 03:04:50;;;;;;;3.63;2.33;;;;;;;16.67;79.86;99698.56;5037408;28;20099;-70
2022/08/17 03:07:16;;;;;;;2.58;2.38;;;;;;;16.67;80.20;99698.56;5038002;28;20041;-70
2022/08/17 03:09:41;;;;;;;3.78;2.45;;;;;;;16.66;80.16;99705.34;5030984;28;20438;-70
2022/08/17 03:12:09;;;;;;;3.40;2.63;;;;;;;16.63;80.22;99700.47;5020037;28;20025;-70
2022/08/17 03:14:39;;;;;;;3.58;2.83;;;;;;;16.61;80.53;99699.19;5003463;28;20029;-70
2022/08/17 03:17:04;;;;;;;4.18;2.70;;;;;;;16.59;80.18;99690.31;5016288;28;20027;-70
2022/08/17 03:19:30;;;;;;;3.45;2.42;;;;;;;16.55;80.00;99687.41;4996276;28;20038;-71
2022/08/17 03:21:57;;;;;;;2.92;2.50;;;;;;;16.51;80.26;99684.47;4991024;28;20401;-70
2022/08/17 03:24:22;;;;;;;2.90;2.60;;;;;;;16.54;80.46;99692.16;5006633;28;20111;-70
2022/08/17 03:26:48;;;;;;;3.78;2.53;;;;;;;16.53;80.32;99695.34;5023107;28;20032;-70
2022/08/17 03:29:18;;;;;;;3.40;2.40;;;;;;;16.51;81.04;99690.06;5023155;28;20044;-70
2022/08/17 03:31:47;;;;;;;2.95;2.42;;;;;;;16.51;81.24;99683.66;4991409;28;20040;-70
2022/08/17 03:34:13;;;;;;;5.93;2.67;;;;;;;16.50;80.85;99684.84;5006580;28;20028;-70
2022/08/17 03:36:39;;;;;;;3.63;2.80;;;;;;;16.51;81.25;99678.88;5023320;28;20072;-70
2022/08/17 03:39:04;;;;;;;3.22;2.88;;;;;;;16.53;81.33;99664.50;5022693;28;20389;-70
2022/08/17 03:41:30;;;;;;;3.15;2.80;;;;;;;16.49;81.73;99666.38;5039281;28;20482;-70
2022/08/17 03:43:55;;;;;;;4.18;2.75;;;;;;;16.49;81.74;99660.75;5039411;28;20033;-70
2022/08/17 03:57:23;;;;;;;3.03;2.55;;;;;;;16.57;81.38;99665.41;5025090;28;20031;-70
2022/08/17 03:59:49;;;;;;;4.15;2.97;;;;;;;16.56;81.17;99669.41;5023134;28;20033;-70
2022/08/17 04:02:17;;;;;;;4.57;2.67;;;;;;;16.56;81.77;99662.97;5006085;28;20051;-70
2022/08/17 04:04:42;;;;;;;3.17;2.55;;;;;;;16.58;81.05;99672.66;5006099;28;20115;-70
2022/08/17 04:07:08;;;;;;;7.95;2.78;;;;;;;16.56;81.99;99669.41;5004854;28;20021;-70
2022/08/17 04:09:33;;;;;;;3.55;3.00;;;;;;;16.55;81.55;99673.38;5006569;28;20390;-70
2022/08/17 04:11:59;;;;;;;5.35;2.83;;;;;;;16.53;81.25;99667.31;5038875;28;20037;-70
2022/08/17 04:14:24;;;;;;;3.00;2.70;;;;;;;16.53;81.20;99676.53;5065815;28;20036;-70
2022/08/17 04:16:50;;;;;;;3.10;2.80;;;;;;;16.53;82.24;99682.13;5005757;28;20024;-70
2022/08/17 04:19:15;;;;;;;3.00;2.60;;;;;;;16.54;82.44;99682.94;5022471;28;20029;-70
2022/08/17 04:21:41;;;;;;;3.75;2.75;;;;;;;16.56;82.12;99679.81;4989034;28;20052;-70
2022/08/17 04:24:06;;;;;;;3.05;2.47;;;;;;;16.58;82.26;99683.88;5006092;28;20055;-70
2022/08/17 04:26:32;;;;;;;4.63;2.92;;;;;;;16.57;82.35;99681.41;4986198;28;20478;-70
2022/08/17 04:28:57;;;;;;;8.00;2.88;;;;;;;16.57;81.83;99684.22;4979114;28;20037;-70
2022/08/17 04:31:23;;;;;;;8.00;3.10;;;;;;;16.57;82.28;99687.03;5054376;28;20033;-70
2022/08/17 04:33:48;;;;;;;3.70;2.80;;;;;;;16.61;82.49;99687.97;5038470;28;20029;-70
2022/08/17 04:36:14;;;;;;;5.43;2.92;;;;;;;16.61;83.10;99688.78;5038133;28;20021;-70
2022/08/17 04:38:41;;;;;;;3.38;3.08;;;;;;;16.60;82.96;99692.72;5005296;28;20028;-70
2022/08/17 04:43:54;;;;;;;3.35;3.05;;;;;;;16.60;83.36;99692.72;5028831;28;20173;-70
2022/08/17 04:46:23;;;;;;;4.55;3.00;;;;;;;16.62;82.66;99698.81;5019094;28;20482;-70
2022/08/17 04:48:50;;;;;;;6.53;2.80;;;;;;;16.59;82.71;99693.91;5000213;28;20044;-70
2022/08/17 04:51:22;;;;;;;4.05;3.00;;;;;;;16.62;83.52;99709.22;5016156;28;20370;-70
2022/08/17 04:53:49;;;;;;;5.47;3.42;;;;;;;16.65;83.53;99716.91;5038309;28;20025;-70
2022/08/17 04:56:15;;;;;;;4.95;2.92;;;;;;;16.65;83.34;99714.91;5005610;28;20025;-70
2022/08/17 04:58:44;;;;;;;5.10;3.08;;;;;;;16.66;83.42;99718.53;4991277;28;20548;-70
2022/08/17 05:01:10;;;;;;;4.78;2.85;;;;;;;16.64;83.25;99718.91;5020030;28;20021;-70
2022/08/17 05:03:35;;;;;;;3.10;2.80;;;;;;;16.68;83.02;99722.63;5015616;28;20028;-70
2022/08/17 05:06:01;;;;;;;3.25;2.70;;;;;;;16.68;83.27;99716.19;5005032;28;20036;-70
2022/08/17 05:08:26;;;;;;;5.05;3.15;;;;;;;16.69;84.11;99718.66;5038145;28;20048;-70
2022/08/17 05:10:52;;;;;;;7.22;3.05;;;;;;;16.71;84.16;99710.69;5055952;28;20032;-70
2022/08/17 05:13:19;;;;;;;7.55;2.90;;;;;;;16.70;84.54;99717.47;5021878;28;20056;-70
2022/08/17 05:15:45;;;;;;;3.83;2.78;;;;;;;16.71;84.20;99724.72;5000620;28;20084;-70
2022/08/17 05:18:11;;;;;;;5.53;3.03;;;;;;;16.73;84.96;99722.38;5037722;28;20048;-72
2022/08/17 05:20:37;;;;;;;3.38;2.53;;;;;;;16.75;84.53;99722.84;5017468;28;20041;-69
2022/08/17 05:23:05;;;;;;;2.88;2.22;;;;;;;16.76;83.53;99723.66;5035878;28;20034;-69
2022/08/17 05:25:33;;;;;;;3.13;2.30;;;;;;;16.79;82.97;99724.97;5018202;28;20056;-69
2022/08/17 05:27:59;;;;;;;3.22;2.28;;;;;;;16.83;82.68;99728.72;5029422;28;20064;-69
2022/08/17 05:30:25;;;;;;;4.68;2.35;;;;;;;16.85;82.44;99729.97;5018116;28;20040;-69
2022/08/17 05:32:54;;;;;;;3.40;2.50;;;;;;;16.92;82.52;99729.38;5014209;28;20030;-69
2022/08/17 05:35:20;;;;;;;5.90;2.78;;;;;;;16.92;82.76;99720.97;5012349;28;20026;-69
2022/08/17 05:37:45;;;;;;;4.75;2.40;;;;;;;16.97;82.96;99715.91;5018078;28;20030;-69
2022/08/17 05:40:11;;;;;;;2.47;2.20;;;;;;;17.01;82.50;99720.81;5017838;28;20033;-69
2022/08/17 05:42:36;;;;;;;4.38;2.40;;;;;;;17.01;82.39;99723.63;5034493;28;20112;-69
2022/08/17 05:45:03;;;;;;;2.97;2.45;;;;;;;17.05;82.42;99722.56;5025332;28;20026;-69
2022/08/17 05:47:28;;;;;;;3.20;2.90;;;;;;;17.07;82.74;99722.19;5034381;28;20029;-69
2022/08/17 05:49:54;;;;;;;4.68;3.33;;;;;;;17.07;82.88;99723.00;5030869;28;20037;-70
2022/08/17 05:52:42;;;;;;;2.90;2.70;;;;;;;17.09;83.83;99715.03;5001639;28;20033;-69
2022/08/17 05:55:25;;;;;;;4.32;2.90;;;;;;;17.11;83.97;99712.69;4993407;28;20038;-70
2022/08/17 05:58:08;;;;;;;5.03;3.75;;;;;;;17.12;83.45;99708.72;5005433;28;20474;-70
2022/08/17 06:00:49;;;;;;;5.30;4.23;;;;;;;17.13;84.55;99710.38;5021279;28;20041;-70
2022/08/17 06:03:31;;;;;;;4.95;3.70;;;;;;;17.15;86.26;99708.00;5021747;28;20485;-70
2022/08/17 06:06:18;;;;;;;5.25;4.50;;;;;;;17.18;87.42;99715.69;5006077;28;20033;-70
2022/08/17 06:08:56;;;;;;;8.05;4.15;;;;;;;17.21;88.10;99714.16;5031111;28;20053;-70
2022/08/17 06:11:25;;;;;;;6.65;4.55;;;;;;;17.26;89.40;99721.50;5021403;28;20033;-70
2022/08/17 06:13:53;;;;;;;4.97;4.20;;;;;;;17.30;89.97;99714.00;5021203;28;20067;-70
2022/08/17 06:16:24;;;;;;;7.47;4.50;;;;;;;17.32;89.67;99722.88;5037453;28;20044;-70
2022/08/17 06:18:56;;;;;;;5.25;4.30;;;;;;;17.37;88.78;99731.03;5019457;28;20453;-70
2022/08/17 06:21:21;;;;;;;5.57;3.50;;;;;;;17.41;87.82;99734.75;5017586;28;20046;-70
2022/08/17 06:23:54;;;;;;;6.22;3.72;;;;;;;17.42;87.53;99733.59;5020530;28;20267;-70
2022/08/17 06:26:24;;;;;;;5.25;3.75;;;;;;;17.48;87.24;99737.78;5021975;28;20030;-71
2022/08/17 06:28:50;;;;;;;8.57;5.03;;;;;;;17.49;88.92;99733.78;5004857;28;20100;-70
2022/08/17 06:31:21;;;;;;;5.95;4.43;;;;;;;17.58;87.22;99725.22;5008867;28;20137;-70
2022/08/17 06:33:47;;;;;;;5.38;3.80;;;;;;;17.59;87.11;99729.63;4988503;28;20056;-70
2022/08/17 06:36:25;;;;;;;6.03;3.60;;;;;;;17.64;86.60;99718.16;5020570;28;20452;-70
2022/08/17 06:39:03;;;;;;;4.32;3.47;;;;;;;17.63;86.10;99722.94;5004738;28;20033;-69
2022/08/17 06:41:59;;;;;;;4.72;3.50;;;;;;;17.62;86.01;99715.69;5013887;28;20029;-70
2022/08/17 06:44:44;;;;;;;5.50;3.50;;;;;;;17.61;85.73;99708.44;5038435;28;20057;-70
2022/08/17 06:47:12;;;;;;;5.35;3.03;;;;;;;17.60;86.76;99709.59;5021811;28;20105;-70
2022/08/17 06:49:52;;;;;;;4.28;3.00;;;;;;;17.60;85.79;99706.81;5020792;28;20049;-70
2022/08/17 06:52:26;;;;;;;6.38;3.42;;;;;;;17.60;85.45;99720.84;5037179;28;20120;-70
2022/08/17 06:55:05;;;;;;;4.28;3.28;;;;;;;17.61;85.40;99721.69;5020238;28;20033;-70
2022/08/17 06:57:32;;;;;;;5.97;3.40;;;;;;;17.65;85.65;99733.81;5018036;28;20425;-70
2022/08/17 07:00:05;;;;;;;5.00;3.28;;;;;;;17.59;85.62;99738.06;5036707;28;20061;-70
2022/08/17 07:02:37;;;;;;;5.18;3.30;;;;;;;17.60;86.16;99742.50;4996420;28;20053;-70
2022/08/17 07:05:04;;;;;;;4.70;3.35;;;;;;;17.57;85.57;99746.81;5037331;28;20064;-70
2022/08/17 07:10:15;;;;;;;3.47;2.97;;;;;;;17.57;86.11;99774.91;5004723;28;20037;-70
2022/08/17 07:12:40;;;;;;;4.85;2.92;;;;;;;17.58;85.61;99768.13;5036766;28;20049;-70
2022/08/17 07:15:18;;;;;;;5.28;3.30;;;;;;;17.57;85.69;99772.09;5013907;28;20105;-70
2022/08/17 07:17:45;;;;;;;6.22;2.95;;;;;;;17.59;85.02;99780.19;5018026;28;20449;-70
2022/08/17 07:20:14;;;;;;;4.13;2.88;;;;;;;17.59;85.67;99780.97;5013423;28;20103;-70
2022/08/17 07:22:46;;;;;;;4.53;3.10;;;;;;;17.63;85.63;99787.53;5016521;28;20041;-70
2022/08/17 07:25:13;;;;;;;5.10;3.10;;;;;;;17.68;85.60;99791.25;5032004;28;20512;-70
2022/08/17 07:27:41;;;;;;;5.65;3.45;;;;;;;17.78;86.76;99796.34;5000465;28;20434;-72
2022/08/17 07:30:07;;;;;;;8.95;6.05;;;;;;;17.86;92.22;99799.00;5000381;28;20061;-71
2022/08/17 07:32:48;;;;;;;5.88;4.90;;;;;;;18.00;92.57;99803.38;5051594;28;20030;-71
2022/08/17 07:35:38;;;;;;;10.40;5.70;;;;;;;18.17;94.16;99797.41;5020119;28;20587;-71
2022/08/17 07:38:07;;;;;;;4.50;2.63;;;;;;;18.35;86.46;99792.22;5034717;28;20112;-71
2022/08/17 07:40:46;;;;;;;3.63;2.95;;;;;;;18.56;87.56;99791.13;5037275;28;20097;-71
2022/08/17 07:43:16;;;;;;;4.70;3.50;;;;;;;18.76;88.74;99781.56;5036197;28;20497;-71
2022/08/17 07:48:43;;;;;;;5.22;3.50;;;;;;;19.29;87.54;99773.47;5022607;28;20029;-71
2022/08/17 07:51:20;;;;;;;7.80;6.00;;;;;;;19.58;92.16;99788.09;5003214;28;20033;-71
2022/08/17 07:53:46;;;;;;;7.03;4.97;;;;;;;19.79;90.05;99793.38;5019264;28;20515;-71
2022/08/17 07:56:30;;;;;;;5.63;5.03;;;;;;;20.01;88.62;99791.78;5036115;28;20025;-71
2022/08/17 07:59:22;;;;;;;6.28;4.85;;;;;;;20.18;87.37;99791.25;5025302;28;20433;-71
2022/08/17 08:02:07;;;;;;;6.78;5.45;;;;;;;20.31;86.55;99791.91;5035258;28;20494;-70
2022/08/17 08:04:35;;;;;;;6.93;4.25;;;;;;;20.47;85.20;99783.25;5020391;28;20033;-71
2022/08/17 08:07:04;;;;;;;6.47;4.43;;;;;;;20.59;83.49;99788.75;5019081;28;20060;-71
2022/08/17 08:09:33;;;;;;;6.40;3.80;;;;;;;20.69;82.85;99793.72;5001738;28;20070;-71
2022/08/17 08:11:59;;;;;;;5.63;4.50;;;;;;;20.66;83.71;99793.66;5037025;28;20541;-71
2022/08/17 08:14:37;;;;;;;5.53;4.30;;;;;;;20.67;83.28;99795.28;4999458;28;20034;-71
2022/08/17 08:17:06;;;;;;;4.35;3.90;;;;;;;20.72;82.27;99803.44;5039419;28;20041;-71
2022/08/17 08:19:32;;;;;;;4.60;3.80;;;;;;;20.71;82.14;99799.81;5032928;28;20120;-71
2022/08/17 08:22:05;;;;;;;5.22;3.15;;;;;;;20.71;81.13;99805.44;5018932;28;20053;-71
2022/08/17 08:24:36;;;;;;;4.43;3.67;;;;;;;20.69;81.68;99809.84;5025627;28;20029;-71
2022/08/17 08:27:14;;;;;;;5.35;3.03;;;;;;;20.66;80.47;99830.34;5034270;28;20059;-71
2022/08/17 08:30:05;;;;;;;4.30;2.95;;;;;;;20.63;80.10;99829.09;5035230;28;20026;-71
2022/08/17 08:32:52;;;;;;;3.20;2.47;;;;;;;20.61;79.58;99830.66;5016624;28;20394;-71
2022/08/17 08:35:33;;;;;;;2.70;2.50;;;;;;;20.58;78.70;99837.88;4987937;28;20026;-71
2022/08/17 08:38:16;;;;;;;2.80;2.55;;;;;;;20.55;78.49;99847.09;5018900;28;20042;-71
2022/08/17 08:40:51;;;;;;;3.45;2.80;;;;;;;20.52;79.49;99861.94;5030038;28;20120;-71
2022/08/17 08:43:25;;;;;;;4.03;2.70;;;;;;;20.46;79.21;99858.59;5036252;28;20041;-71
2022/08/17 08:46:12;;;;;;;2.75;2.38;;;;;;;20.44;78.40;99863.00;5003166;28;20444;-71
2022/08/17 08:48:50;;;;;;;3.92;2.67;;;;;;;20.39;78.34;99852.03;4999947;28;20053;-71
2022/08/17 08:51:41;;;;;;;2.97;2.55;;;;;;;20.34;78.22;99839.06;5034992;28;20033;-71
2022/08/17 08:54:34;;;;;;;4.45;2.80;;;;;;;20.29;78.94;99830.91;5018158;28;20493;-71
2022/08/17 08:57:06;;;;;;;3.88;2.53;;;;;;;20.23;78.98;99838.88;5027852;28;20033;-71
2022/08/17 08:59:32;;;;;;;4.88;3.60;;;;;;;20.17;81.04;99850.81;5015645;28;20030;-71
2022/08/17 09:02:20;;;;;;;6.75;3.42;;;;;;;20.09;81.13;99850.72;5034671;28;20068;-71
2022/08/17 09:05:19;;;;;;;5.82;4.10;;;;;;;19.99;83.39;99858.97;5032035;28;20072;-71
2022/08/17 09:08:31;;;;;;;5.13;4.43;;;;;;;19.86;83.92;99859.13;5032101;28;20052;-72
2022/08/17 09:11:23;;;;;;;5.60;3.80;;;;;;;19.77;82.36;99850.09;5029260;28;20049;-71
2022/08/17 09:14:20;;;;;;;5.05;2.83;;;;;;;19.69;82.22;99844.69;5034014;28;20033;-71
2022/08/17 09:17:05;;;;;;;5.97;3.80;;;;;;;19.62;84.34;99848.16;4984232;28;20386;-71
2022/08/17 09:19:30;;;;;;;5.20;3.67;;;;;;;19.55;87.30;99856.44;5034454;28;20038;-72
2022/08/17 09:22:10;;;;;;;6.80;3.90;;;;;;;19.45;87.85;99868.31;5055303;28;20528;-71
2022/08/17 09:24:38;;;;;;;4.85;3.20;;;;;;;19.40;87.51;99864.59;5021391;28;20386;-72
2022/08/17 09:27:12;;;;;;;5.97;2.70;;;;;;;19.36;86.56;99869.34;5001695;28;20033;-72
2022/08/17 09:29:41;;;;;;;3.42;2.50;;;;;;;19.32;85.69;99868.44;5025649;28;20079;-71
2022/08/17 09:32:18;;;;;;;3.75;2.42;;;;;;;19.29;85.08;99874.00;5005539;28;20475;-70
2022/08/17 09:34:53;;;;;;;4.95;2.40;;;;;;;19.25;85.58;99868.28;5008746;28;20480;-70
2022/08/17 09:37:49;;;;;;;2.58;2.20;;;;;;;19.23;86.51;99873.47;5009357;28;20017;-71
2022/08/17 09:40:48;;;;;;;3.33;2.40;;;;;;;19.21;85.69;99889.91;5010238;28;20033;-72
2022/08/17 09:43:26;;;;;;;3.50;2.30;;;;;;;19.21;85.38;99901.16;5018062;28;20110;-71
2022/08/17 09:45:55;;;;;;;2.40;2.00;;;;;;;19.18;85.51;99897.09;5059309;28;20507;-71
2022/08/17 09:48:29;;;;;;;6.05;2.60;;;;;;;19.16;86.41;99887.38;5009499;28;20016;-72
2022/08/17 09:51:14;;;;;;;2.30;2.10;;;;;;;19.19;86.34;99892.25;5041029;28;20060;-72
2022/08/17 09:53:39;;;;;;;3.95;3.00;;;;;;;19.22;87.26;99893.53;5021104;28;20032;-71
2022/08/17 09:56:08;;;;;;;5.72;2.85;;;;;;;19.25;87.80;99887.16;5041648;28;20469;-71
2022/08/17 09:59:02;;;;;;;3.45;2.97;;;;;;;19.26;88.41;99875.56;5023736;28;20029;-71
2022/08/17 10:01:41;;;;;;;5.32;3.15;;;;;;;19.36;90.47;99874.13;5036152;28;20098;-71
2022/08/17 10:04:16;;;;;;;3.75;3.13;;;;;;;19.42;91.12;99881.94;5007138;28;20538;-71
2022/08/17 10:06:51;;;;;;;5.22;3.20;;;;;;;19.52;92.05;99885.34;5040975;28;20052;-71
2022/08/17 10:09:22;;;;;;;5.07;3.10;;;;;;;19.59;91.48;99897.59;5005548;28;20087;-71
2022/08/17 10:12:15;;;;;;;4.40;3.10;;;;;;;19.68;91.55;99897.41;5043472;28;20655;-73
2022/08/17 10:15:01;;;;;;;4.47;2.78;;;;;;;19.79;89.64;99894.81;5010204;28;20024;-71
2022/08/17 10:17:33;;;;;;;4.30;2.92;;;;;;;19.91;91.83;99888.19;5041301;28;20482;-71
2022/08/17 10:20:09;;;;;;;8.85;2.28;;;;;;;20.02;89.96;99900.50;5024756;28;20078;-72
2022/08/17 10:28:21;;;;;;;2.35;1.83;;;;;;;20.29;89.51;99921.97;5024080;28;20025;-71
2022/08/17 10:30:51;;;;;;;3.60;2.25;;;;;;;20.33;89.35;99918.38;5024182;28;20025;-71
2022/08/17 10:33:26;;;;;;;4.13;1.90;;;;;;;20.33;88.26;99910.75;5007096;28;20060;-71
2022/08/17 10:36:12;;;;;;;3.72;2.13;;;;;;;20.34;87.19;99918.03;5023977;28;20048;-72
2022/08/17 10:38:46;;;;;;;3.95;2.35;;;;;;;20.32;86.32;99920.41;5023996;28;20393;-71
2022/08/17 10:41:42;;;;;;;3.25;2.38;;;;;;;20.31;86.37;99936.50;5007672;28;20033;-73
2022/08/17 10:44:31;;;;;;;3.60;2.30;;;;;;;20.28;86.85;99922.31;5026933;28;20041;-71
2022/08/17 10:47:12;;;;;;;4.28;2.67;;;;;;;20.24;88.04;99913.81;5057970;28;20040;-71
2022/08/17 10:50:02;;;;;;;4.15;3.20;;;;;;;20.15;89.43;99910.41;5021719;28;20029;-72
2022/08/17 10:52:44;;;;;;;3.72;3.10;;;;;;;20.08;88.85;99915.91;5012949;28;20044;-72
2022/08/17 10:55:15;;;;;;;3.92;2.60;;;;;;;20.11;87.66;99912.34;5040411;28;20037;-72
2022/08/17 10:57:43;;;;;;;2.22;1.98;;;;;;;20.19;87.41;99907.66;5007228;28;20112;-71
2022/08/17 11:00:32;;;;;;;2.90;2.47;;;;;;;20.24;88.30;99896.88;5023908;28;20024;-71
2022/08/17 11:02:57;;;;;;;3.28;2.05;;;;;;;20.39;86.15;99914.88;5008911;28;20041;-74
2022/08/17 11:05:52;;;;;;;3.38;2.60;;;;;;;20.57;88.80;99909.59;5023157;28;20044;-73
2022/08/17 11:08:37;;;;;;;3.97;2.70;;;;;;;20.73;88.38;99915.13;5040192;28;20520;-71
2022/08/17 11:11:34;;;;;;;4.15;3.05;;;;;;;20.84;87.05;99907.66;5041354;28;20040;-72
2022/08/17 11:14:12;;;;;;;4.05;3.20;;;;;;;20.98;85.65;99899.41;5037238;28;20033;-71
2022/08/17 11:16:41;;;;;;;6.15;2.97;;;;;;;21.14;85.38;99904.88;5057687;28;20532;-71
2022/08/17 11:19:28;;;;;;;5.10;3.28;;;;;;;21.23;83.22;99906.59;5039658;28;20546;-71
2022/08/17 11:21:57;;;;;;;4.05;3.53;;;;;;;21.37;82.90;99912.50;5049794;28;20083;-71
2022/08/17 11:24:40;;;;;;;4.35;2.75;;;;;;;21.60;83.53;99909.59;5039920;28;20045;-71
2022/08/17 11:27:27;;;;;;;4.40;3.00;;;;;;;21.74;80.61;99903.31;5040131;28;20071;-71
2022/08/17 11:30:03;;;;;;;6.90;2.60;;;;;;;22.00;80.38;99911.69;5057010;28;20033;-71
2022/08/17 11:32:39;;;;;;;4.47;2.78;;;;;;;22.24;80.04;99915.22;5031232;28;20037;-71
2022/08/17 11:35:14;;;;;;;4.07;2.70;;;;;;;;;;5022809;28;20114;-71
2022/08/17 11:37:57;;;;;;;3.75;2.65;;;;;;;22.64;77.03;99924.91;5057333;28;20393;-71
2022/08/17 11:40:39;;;;;;;4.40;2.50;;;;;;;22.74;75.73;99927.03;5057254;28;20029;-71
2022/08/17 11:43:19;;;;;;;3.28;2.35;;;;;;;22.96;74.27;99917.53;5049006;28;20033;-71
2022/08/17 11:46:03;;;;;;;3.15;2.20;;;;;;;23.12;74.09;99922.09;5054465;28;20087;-71
2022/08/17 11:51:59;;;;;;;3.83;2.28;;;;;;;23.47;71.97;99912.22;5052297;28;20116;-72
2022/08/17 11:54:27;;;;;;;3.10;2.40;;;;;;;23.57;68.96;99917.13;5039276;28;20029;-71
2022/08/17 11:56:52;;;;;;;2.38;1.70;;;;;;;23.81;69.90;99909.97;5057062;28;20031;-71
2022/08/17 11:59:34;;;;;;;2.10;1.70;;;;;;;24.06;70.05;99907.22;5038973;28;20063;-71
2022/08/17 12:02:04;;;;;;;2.15;1.60;;;;;;;24.38;68.27;99909.34;5039065;28;20033;-71
2022/08/17 12:04:30;;;;;;;1.50;1.38;;;;;;;24.63;64.77;99903.75;5022726;28;20108;-71
2022/08/17 12:07:17;;;;;;;2.22;1.35;;;;;;;24.90;62.83;99906.97;5002753;28;20382;-72
2022/08/17 12:09:44;;;;;;;2.53;1.65;;;;;;;25.10;62.15;99893.97;5034218;28;20065;-71
2022/08/17 12:12:13;;;;;;;2.10;1.10;;;;;;;25.26;60.22;99887.88;5019233;28;20023;-72
2022/08/17 12:14:39;;;;;;;2.35;1.20;;;;;;;25.48;58.53;99885.78;5017450;28;20032;-72
2022/08/17 12:17:07;;;;;;;1.80;1.10;;;;;;;25.58;55.61;99882.09;5022333;28;20032;-72
2022/08/17 12:19:34;;;;;;;2.47;1.33;;;;;;;25.66;56.74;99879.22;4989695;28;20485;-72
2022/08/17 12:22:15;;;;;;;2.72;1.30;;;;;;;25.81;54.95;99887.28;5022371;28;20052;-72
2022/08/17 12:25:10;;;;;;;1.77;1.40;;;;;;;25.90;55.20;99880.38;5056490;28;20040;-72